createdAt,value
2018-12-02T00:00:53.438Z,311.83
2018-12-02T00:03:22.845Z,304.73
2018-12-02T00:05:51.934Z,310.60
2018-12-02T00:08:39.866Z,311.03
2018-12-02T00:11:09.001Z,304.17
2018-12-02T00:13:38.153Z,316.57
2018-12-02T00:16:07.326Z,343.93
2018-12-02T00:18:36.586Z,327.67
2018-12-02T00:21:06.183Z,335.97
2018-12-02T00:23:35.336Z,327.07
2018-12-02T00:26:04.415Z,331.70
2018-12-02T00:28:33.514Z,391.30
2018-12-02T00:31:02.739Z,350.20
2018-12-02T00:33:31.922Z,347.97
2018-12-02T00:36:01.058Z,372.37
2018-12-02T00:38:30.231Z,378.97
2018-12-02T00:40:59.260Z,355.00
2018-12-02T00:43:28.326Z,380.90
2018-12-02T00:45:57.397Z,382.20
2018-12-02T00:48:26.565Z,386.60
2018-12-02T00:50:55.681Z,376.10
2018-12-02T00:53:24.814Z,346.00
2018-12-02T00:55:59.825Z,375.57
2018-12-02T00:58:29.023Z,377.50
2018-12-02T01:00:58.090Z,407.73
2018-12-02T01:03:27.201Z,407.03
2018-12-02T01:05:56.366Z,400.17
2018-12-02T01:08:25.442Z,387.80
2018-12-02T01:10:54.589Z,425.77
2018-12-02T01:13:23.746Z,383.30
2018-12-02T01:15:52.894Z,403.17
2018-12-02T01:18:22.009Z,436.80
2018-12-02T01:20:51.520Z,407.50
2018-12-02T01:23:20.568Z,406.40
2018-12-02T01:25:49.649Z,402.83
2018-12-02T01:28:18.714Z,434.00
2018-12-02T01:30:47.802Z,454.63
2018-12-02T01:33:16.865Z,419.63
2018-12-02T01:35:46.075Z,419.97
2018-12-02T01:38:15.131Z,417.67
2018-12-02T01:40:48.068Z,377.43
2018-12-02T01:43:17.117Z,413.53
2018-12-02T01:45:46.157Z,379.23
2018-12-02T01:48:15.299Z,407.17
2018-12-02T01:50:44.341Z,415.20
2018-12-02T01:53:13.447Z,434.63
2018-12-02T01:55:42.510Z,424.00
2018-12-02T01:58:11.617Z,418.27
2018-12-02T02:00:40.717Z,427.70
2018-12-02T02:03:09.879Z,410.83
2018-12-02T02:05:39.025Z,421.50
2018-12-02T02:08:08.071Z,393.00
2018-12-02T02:10:37.247Z,405.47
2018-12-02T02:13:06.334Z,368.73
2018-12-02T02:15:35.535Z,352.53
2018-12-02T02:18:04.738Z,360.00
2018-12-02T02:20:33.774Z,335.13
2018-12-02T02:23:02.858Z,386.33
2018-12-02T02:25:31.941Z,349.03
2018-12-02T02:28:01.058Z,373.77
2018-12-02T02:30:30.578Z,349.70
2018-12-02T02:32:59.712Z,356.93
2018-12-02T02:35:28.804Z,334.97
2018-12-02T02:37:58.343Z,364.73
2018-12-02T02:40:28.710Z,328.10
2018-12-02T02:42:57.874Z,352.07
2018-12-02T02:45:27.062Z,341.13
2018-12-02T02:47:56.176Z,367.53
2018-12-02T02:50:25.705Z,362.70
2018-12-02T02:52:59.560Z,395.30
2018-12-02T02:55:29.062Z,345.87
2018-12-02T02:57:58.114Z,360.80
2018-12-02T03:00:27.832Z,363.10
2018-12-02T03:02:56.903Z,369.20
2018-12-02T03:05:25.948Z,356.57
2018-12-02T03:07:55.332Z,376.07
2018-12-02T03:10:24.419Z,389.57
2018-12-02T03:12:54.569Z,357.00
2018-12-02T03:15:24.279Z,350.10
2018-12-02T03:17:53.313Z,368.57
2018-12-02T03:20:22.910Z,379.67
2018-12-02T03:22:53.736Z,375.50
2018-12-02T03:25:23.704Z,374.20
2018-12-02T03:27:52.762Z,370.13
2018-12-02T03:30:22.626Z,366.40
2018-12-02T03:32:51.798Z,378.70
2018-12-02T03:35:24.779Z,364.80
2018-12-02T03:37:54.667Z,359.40
2018-12-02T03:40:24.513Z,355.60
2018-12-02T03:42:53.785Z,379.93
2018-12-02T03:45:24.704Z,371.80
2018-12-02T03:47:53.802Z,421.23
2018-12-02T03:50:23.358Z,354.17
2018-12-02T03:52:52.548Z,394.80
2018-12-02T03:55:21.653Z,377.63
2018-12-02T03:57:50.788Z,396.60
2018-12-02T04:00:21.450Z,387.27
2018-12-02T04:02:51.021Z,369.40
2018-12-02T04:05:21.640Z,392.40
2018-12-02T04:07:51.227Z,385.00
2018-12-02T04:10:20.599Z,364.40
2018-12-02T04:12:51.334Z,526.63
2018-12-02T04:15:23.129Z,532.13
2018-12-02T04:17:52.284Z,622.83
2018-12-02T04:20:21.573Z,620.47
2018-12-02T04:22:51.439Z,487.67
2018-12-02T04:25:23.422Z,503.67
2018-12-02T04:27:52.517Z,501.67
2018-12-02T04:30:22.117Z,497.47
2018-12-02T04:32:52.703Z,581.10
2018-12-02T04:35:24.514Z,572.60
2018-12-02T04:37:53.612Z,614.33
2018-12-02T04:40:22.655Z,541.23
2018-12-02T04:42:51.706Z,433.37
2018-12-02T04:45:20.830Z,440.77
2018-12-02T04:47:49.975Z,439.37
2018-12-02T04:50:19.895Z,479.77
2018-12-02T04:52:48.978Z,451.60
2018-12-02T04:55:18.114Z,390.73
2018-12-02T04:57:47.215Z,384.47
2018-12-02T05:00:20.067Z,406.97
2018-12-02T05:02:50.788Z,409.23
2018-12-02T05:05:22.735Z,440.70
2018-12-02T05:07:52.087Z,412.77
2018-12-02T05:10:21.507Z,416.13
2018-12-02T05:12:50.953Z,437.73
2018-12-02T05:15:20.848Z,389.43
2018-12-02T05:17:49.897Z,383.10
2018-12-02T05:20:20.894Z,398.23
2018-12-02T05:22:50.028Z,405.23
2018-12-02T05:25:19.310Z,418.17
2018-12-02T05:27:48.315Z,398.67
2018-12-02T05:30:21.367Z,356.77
2018-12-02T05:32:52.172Z,385.17
2018-12-02T05:35:21.263Z,422.70
2018-12-02T05:37:50.573Z,441.27
2018-12-02T05:40:20.626Z,350.00
2018-12-02T05:42:49.825Z,368.30
2018-12-02T05:45:19.295Z,341.53
2018-12-02T05:47:48.418Z,325.27
2018-12-02T05:50:18.379Z,337.17
2018-12-02T05:52:49.522Z,325.50
2018-12-02T05:55:20.826Z,367.77
2018-12-02T05:57:49.933Z,357.20
2018-12-02T06:00:20.018Z,359.03
2018-12-02T06:02:49.055Z,365.53
2018-12-02T06:05:18.095Z,339.13
2018-12-02T06:07:47.150Z,360.53
2018-12-02T06:10:16.885Z,365.27
2018-12-02T06:12:45.902Z,338.90
2018-12-02T06:15:16.739Z,351.27
2018-12-02T06:17:45.782Z,364.40
2018-12-02T06:20:29.095Z,393.70
2018-12-02T06:22:58.450Z,435.27
2018-12-02T06:25:27.593Z,400.53
2018-12-02T06:27:56.674Z,402.27
2018-12-02T06:30:27.433Z,356.67
2018-12-02T06:32:57.477Z,427.77
2018-12-02T06:35:26.722Z,399.27
2018-12-02T06:37:56.505Z,395.07
2018-12-02T06:40:26.550Z,346.47
2018-12-02T06:42:55.605Z,376.90
2018-12-02T06:45:24.725Z,391.10
2018-12-02T06:47:53.851Z,408.23
2018-12-02T06:50:26.602Z,344.87
2018-12-02T06:52:56.329Z,492.73
2018-12-02T06:55:41.505Z,447.23
2018-12-02T06:58:25.057Z,365.87
2018-12-02T07:01:04.071Z,330.23
2018-12-02T07:03:46.782Z,307.13
2018-12-02T07:06:15.885Z,284.87
2018-12-02T07:08:44.968Z,292.73
2018-12-02T07:11:14.069Z,312.33
2018-12-02T07:13:43.125Z,297.30
2018-12-02T07:16:12.210Z,294.67
2018-12-02T07:18:44.603Z,292.43
2018-12-02T07:21:18.967Z,266.17
2018-12-02T07:23:50.866Z,282.73
2018-12-02T07:26:22.000Z,282.90
2018-12-02T07:28:51.064Z,266.67
2018-12-02T07:31:20.160Z,272.97
2018-12-02T07:34:08.978Z,277.90
2018-12-02T07:36:54.533Z,257.93
2018-12-02T07:39:45.713Z,264.30
2018-12-02T07:42:14.942Z,261.00
2018-12-02T07:44:44.137Z,250.30
2018-12-02T07:47:13.189Z,265.97
2018-12-02T07:49:42.346Z,244.77
2018-12-02T07:52:11.421Z,259.40
2018-12-02T07:54:40.501Z,243.47
2018-12-02T07:57:09.698Z,247.60
2018-12-02T07:59:38.857Z,255.80
2018-12-02T08:02:07.905Z,239.70
2018-12-02T08:04:37.051Z,259.23
2018-12-02T08:07:06.312Z,250.87
2018-12-02T08:09:35.341Z,223.17
2018-12-02T08:12:04.682Z,250.57
2018-12-02T08:14:33.764Z,248.00
2018-12-02T08:17:02.865Z,233.73
2018-12-02T08:19:32.049Z,245.00
2018-12-02T08:22:01.151Z,231.10
2018-12-02T08:24:30.213Z,240.23
2018-12-02T08:26:59.278Z,240.07
2018-12-02T08:29:28.358Z,244.03
2018-12-02T08:31:57.420Z,244.90
2018-12-02T08:34:26.497Z,233.80
2018-12-02T08:36:55.808Z,217.93
2018-12-02T08:39:27.116Z,226.53
2018-12-02T08:41:56.145Z,215.10
2018-12-02T08:44:25.227Z,212.40
2018-12-02T08:46:54.330Z,214.10
2018-12-02T08:49:23.347Z,207.73
2018-12-02T08:51:53.322Z,203.90
2018-12-02T08:54:22.682Z,199.47
2018-12-02T08:56:51.881Z,199.97
2018-12-02T08:59:21.039Z,191.57
2018-12-02T09:01:50.118Z,197.33
2018-12-02T09:04:19.166Z,215.57
2018-12-02T09:06:48.233Z,203.97
2018-12-02T09:09:17.438Z,198.83
2018-12-02T09:11:48.517Z,204.37
2018-12-02T09:14:19.683Z,197.87
2018-12-02T09:16:48.729Z,198.17
2018-12-02T09:19:17.855Z,212.30
2018-12-02T09:21:46.935Z,195.70
2018-12-02T09:24:15.994Z,203.80
2018-12-02T09:26:45.034Z,197.13
2018-12-02T09:29:14.129Z,198.63
2018-12-02T09:31:43.206Z,178.53
2018-12-02T09:34:12.248Z,200.87
2018-12-02T09:36:41.401Z,193.00
2018-12-02T09:39:10.585Z,188.23
2018-12-02T09:41:39.650Z,191.60
2018-12-02T09:44:08.719Z,203.53
2018-12-02T09:46:37.777Z,181.20
2018-12-02T09:49:06.920Z,179.90
2018-12-02T09:51:36.004Z,182.87
2018-12-02T09:54:05.498Z,165.50
2018-12-02T09:56:34.578Z,196.80
2018-12-02T09:59:03.675Z,182.60
2018-12-02T10:01:32.792Z,181.03
2018-12-02T10:04:01.851Z,174.27
2018-12-02T10:06:30.953Z,179.83
2018-12-02T10:09:00.027Z,173.97
2018-12-02T10:11:29.082Z,191.03
2018-12-02T10:13:58.143Z,172.20
2018-12-02T10:16:27.266Z,180.77
2018-12-02T10:18:56.275Z,162.57
2018-12-02T10:21:25.366Z,146.97
2018-12-02T10:23:54.432Z,157.13
2018-12-02T10:26:23.533Z,159.53
2018-12-02T10:28:52.668Z,151.63
2018-12-02T10:31:21.750Z,151.43
2018-12-02T10:33:50.786Z,138.23
2018-12-02T10:36:20.138Z,133.30
2018-12-02T10:38:49.206Z,131.53
2018-12-02T10:41:18.205Z,124.77
2018-12-02T10:43:47.320Z,131.53
2018-12-02T10:46:16.334Z,126.43
2018-12-02T10:48:45.648Z,120.50
2018-12-02T10:51:15.055Z,112.00
2018-12-02T10:53:44.197Z,113.43
2018-12-02T10:56:13.193Z,112.43
2018-12-02T10:58:42.237Z,105.87
2018-12-02T11:01:17.841Z,103.93
2018-12-02T11:03:47.840Z,102.37
2018-12-02T11:06:16.901Z,110.13
2018-12-02T11:08:45.916Z,95.33
2018-12-02T11:11:15.049Z,96.97
2018-12-02T11:13:44.118Z,113.83
2018-12-02T11:16:13.234Z,106.33
2018-12-02T11:18:42.271Z,99.80
2018-12-02T11:21:11.485Z,102.20
2018-12-02T11:23:40.493Z,72.60
2018-12-02T11:26:09.548Z,88.63
2018-12-02T11:28:38.630Z,88.33
2018-12-02T11:31:07.733Z,86.80
2018-12-02T11:33:36.796Z,87.67
2018-12-02T11:36:05.922Z,100.30
2018-12-02T11:38:34.963Z,86.07
2018-12-02T11:41:04.899Z,84.97
2018-12-02T11:43:33.908Z,92.17
2018-12-02T11:46:02.920Z,99.67
2018-12-02T11:48:31.984Z,91.50
2018-12-02T11:51:01.035Z,93.47
2018-12-02T11:53:30.099Z,88.00
2018-12-02T11:55:59.171Z,80.10
2018-12-02T11:58:28.186Z,84.10
2018-12-02T12:00:57.183Z,84.13
2018-12-02T12:03:26.250Z,82.83
2018-12-02T12:05:55.266Z,85.37
2018-12-02T12:08:24.297Z,85.73
2018-12-02T12:10:53.436Z,78.27
2018-12-02T12:13:22.527Z,82.67
2018-12-02T12:15:51.566Z,84.23
2018-12-02T12:18:20.631Z,82.27
2018-12-02T12:20:48.823Z,82.07
2018-12-02T12:23:18.065Z,78.57
2018-12-02T12:25:45.761Z,73.23
2018-12-02T12:28:13.473Z,86.13
2018-12-02T12:30:41.137Z,82.80
2018-12-02T12:33:09.657Z,107.60
2018-12-02T12:35:39.475Z,74.73
2018-12-02T12:38:07.129Z,74.43
2018-12-02T12:40:35.953Z,63.07
2018-12-02T12:43:20.328Z,66.17
2018-12-02T12:45:48.037Z,61.93
2018-12-02T12:48:15.729Z,58.07
2018-12-02T12:50:43.385Z,65.43
2018-12-02T12:53:12.205Z,68.07
2018-12-02T12:55:40.802Z,67.80
2018-12-02T12:58:10.094Z,67.03
2018-12-02T13:00:38.811Z,69.07
2018-12-02T13:03:07.665Z,75.90
2018-12-02T13:05:37.121Z,86.67
2018-12-02T13:08:06.941Z,78.67
2018-12-02T13:10:35.552Z,69.73
2018-12-02T13:13:04.286Z,68.97
2018-12-02T13:15:33.898Z,66.07
2018-12-02T13:18:03.446Z,60.90
2018-12-02T13:20:38.328Z,63.13
2018-12-02T13:23:08.225Z,59.23
2018-12-02T13:25:37.410Z,61.10
2018-12-02T13:28:06.877Z,55.90
2018-12-02T13:30:35.665Z,58.43
2018-12-02T13:33:04.361Z,69.53
2018-12-02T13:35:33.021Z,60.27
2018-12-02T13:38:01.527Z,65.37
2018-12-02T13:40:30.174Z,61.53
2018-12-02T13:43:05.703Z,58.90
2018-12-02T13:45:34.257Z,58.17
2018-12-02T13:48:02.102Z,53.37
2018-12-02T13:50:29.888Z,56.67
2018-12-02T13:52:57.566Z,57.17
2018-12-02T13:55:27.558Z,64.83
2018-12-02T13:57:55.346Z,64.23
2018-12-02T14:00:24.286Z,57.30
2018-12-02T14:02:53.509Z,65.90
2018-12-02T14:05:21.257Z,64.40
2018-12-02T14:07:48.968Z,62.97
2018-12-02T14:10:16.667Z,69.43
2018-12-02T14:12:50.049Z,73.63
2018-12-02T14:15:23.265Z,67.60
2018-12-02T14:17:53.399Z,67.33
2018-12-02T14:20:21.207Z,62.80
2018-12-02T14:22:48.968Z,65.47
2018-12-02T14:25:16.759Z,76.07
2018-12-02T14:27:46.297Z,104.90
2018-12-02T14:30:15.909Z,90.63
2018-12-02T14:32:44.029Z,86.43
2018-12-02T14:35:11.846Z,82.43
2018-12-02T14:37:39.630Z,77.93
2018-12-02T14:40:10.536Z,76.33
2018-12-02T14:42:39.005Z,87.97
2018-12-02T14:45:10.997Z,82.37
2018-12-02T14:47:39.066Z,80.90
2018-12-02T14:50:11.894Z,82.77
2018-12-02T14:52:39.729Z,83.00
2018-12-02T14:55:12.006Z,93.80
2018-12-02T14:57:39.689Z,87.43
2018-12-02T15:00:16.970Z,101.17
2018-12-02T15:02:44.744Z,90.37
2018-12-02T15:05:13.121Z,118.67
2018-12-02T15:07:41.786Z,108.30
2018-12-02T15:10:11.950Z,97.57
2018-12-02T15:12:39.650Z,97.27
2018-12-02T15:15:10.046Z,83.33
2018-12-02T15:17:37.730Z,98.87
2018-12-02T15:20:09.355Z,85.87
2018-12-02T15:22:37.178Z,92.23
2018-12-02T15:25:06.226Z,96.33
2018-12-02T15:27:33.954Z,96.83
2018-12-02T15:30:01.726Z,89.50
2018-12-02T15:32:29.410Z,91.63
2018-12-02T15:34:57.155Z,122.70
2018-12-02T15:37:24.970Z,96.80
2018-12-02T15:39:52.754Z,86.37
2018-12-02T15:42:20.467Z,112.43
2018-12-02T15:44:48.178Z,83.13
2018-12-02T15:47:15.867Z,85.17
2018-12-02T15:49:43.647Z,82.07
2018-12-02T15:52:11.373Z,87.93
2018-12-02T15:54:39.174Z,80.80
2018-12-02T15:57:06.865Z,83.87
2018-12-02T15:59:34.625Z,79.50
2018-12-02T16:02:02.309Z,81.67
2018-12-02T16:04:30.465Z,90.53
2018-12-02T16:06:58.693Z,90.37
2018-12-02T16:09:26.878Z,90.73
2018-12-02T16:11:54.873Z,91.37
2018-12-02T16:14:22.672Z,101.00
2018-12-02T16:16:50.505Z,85.47
2018-12-02T16:19:18.234Z,79.50
2018-12-02T16:21:46.070Z,75.83
2018-12-02T16:24:13.799Z,75.73
2018-12-02T16:26:41.516Z,78.63
2018-12-02T16:29:09.238Z,77.63
2018-12-02T16:31:37.017Z,82.93
2018-12-02T16:34:05.039Z,85.03
2018-12-02T16:36:32.765Z,80.03
2018-12-02T16:39:00.486Z,83.50
2018-12-02T16:41:28.266Z,83.90
2018-12-02T16:43:56.040Z,80.50
2018-12-02T16:46:23.749Z,78.67
2018-12-02T16:48:51.488Z,92.83
2018-12-02T16:51:19.375Z,80.73
2018-12-02T16:53:47.098Z,85.40
2018-12-02T16:56:15.976Z,86.63
2018-12-02T16:59:02.462Z,87.73
2018-12-02T17:01:31.878Z,96.57
2018-12-02T17:04:00.721Z,107.03
2018-12-02T17:06:28.467Z,132.17
2018-12-02T17:08:57.509Z,138.00
2018-12-02T17:11:25.234Z,130.03
2018-12-02T17:13:52.981Z,113.50
2018-12-02T17:16:20.701Z,110.37
2018-12-02T17:18:48.478Z,97.17
2018-12-02T17:21:16.266Z,105.83
2018-12-02T17:23:44.083Z,105.23
2018-12-02T17:26:11.833Z,102.67
2018-12-02T17:28:39.733Z,101.53
2018-12-02T17:31:10.278Z,102.20
2018-12-02T17:33:38.100Z,102.57
2018-12-02T17:36:05.949Z,116.63
2018-12-02T17:38:33.689Z,104.20
2018-12-02T17:41:01.483Z,114.87
2018-12-02T17:43:29.266Z,106.83
2018-12-02T17:45:57.110Z,109.60
2018-12-02T17:48:24.877Z,111.87
2018-12-02T17:50:52.693Z,93.00
2018-12-02T17:53:20.405Z,99.03
2018-12-02T17:55:48.125Z,90.60
2018-12-02T17:58:15.956Z,89.47
2018-12-02T18:00:43.751Z,95.13
2018-12-02T18:03:14.330Z,103.30
2018-12-02T18:05:43.715Z,100.87
2018-12-02T18:08:11.577Z,101.30
2018-12-02T18:10:39.366Z,99.27
2018-12-02T18:13:07.152Z,106.30
2018-12-02T18:15:34.994Z,94.53
2018-12-02T18:18:02.959Z,94.90
2018-12-02T18:20:30.801Z,106.30
2018-12-02T18:22:58.507Z,104.13
2018-12-02T18:25:26.214Z,99.30
2018-12-02T18:27:53.958Z,92.23
2018-12-02T18:30:22.553Z,102.63
2018-12-02T18:32:54.949Z,91.87
2018-12-02T18:35:27.181Z,101.23
2018-12-02T18:38:00.282Z,98.90
2018-12-02T18:40:28.170Z,96.13
2018-12-02T18:42:55.934Z,92.07
2018-12-02T18:45:23.702Z,98.80
2018-12-02T18:47:51.586Z,91.37
2018-12-02T18:50:19.301Z,91.70
2018-12-02T18:52:47.053Z,93.40
2018-12-02T18:55:14.735Z,89.53
2018-12-02T18:57:42.452Z,72.87
2018-12-02T19:00:18.471Z,82.13
2018-12-02T19:02:46.836Z,83.43
2018-12-02T19:05:14.613Z,87.00
2018-12-02T19:07:42.382Z,82.70
2018-12-02T19:10:13.205Z,91.67
2018-12-02T19:12:41.078Z,83.47
2018-12-02T19:15:12.765Z,79.27
2018-12-02T19:17:40.542Z,83.33
2018-12-02T19:20:12.659Z,79.10
2018-12-02T19:22:40.465Z,81.50
2018-12-02T19:25:11.860Z,89.40
2018-12-02T19:27:39.574Z,77.03
2018-12-02T19:30:10.459Z,84.57
2018-12-02T19:32:38.162Z,77.90
2018-12-02T19:35:11.565Z,82.40
2018-12-02T19:37:39.361Z,80.57
2018-12-02T19:40:14.861Z,85.10
2018-12-02T19:42:42.601Z,80.67
2018-12-02T19:45:13.673Z,94.63
2018-12-02T19:47:41.424Z,90.90
2018-12-02T19:50:11.593Z,87.83
2018-12-02T19:52:39.293Z,93.50
2018-12-02T19:55:08.592Z,93.23
2018-12-02T19:57:36.388Z,94.07
2018-12-02T20:00:12.328Z,89.80
2018-12-02T20:02:40.077Z,96.63
2018-12-02T20:05:07.822Z,86.50
2018-12-02T20:07:35.670Z,90.10
2018-12-02T20:10:04.542Z,90.03
2018-12-02T20:12:32.347Z,97.03
2018-12-02T20:15:00.204Z,98.40
2018-12-02T20:17:27.951Z,91.40
2018-12-02T20:21:02.870Z,95.27
2018-12-02T20:23:36.250Z,104.63
2018-12-02T20:26:03.961Z,100.17
2018-12-02T20:28:33.554Z,101.00
2018-12-02T20:31:07.138Z,88.30
2018-12-02T20:33:35.258Z,96.37
2018-12-02T20:36:03.392Z,100.53
2018-12-02T20:38:31.302Z,96.10
2018-12-02T20:40:59.196Z,104.70
2018-12-02T20:43:27.041Z,110.50
2018-12-02T20:45:54.755Z,103.50
2018-12-02T20:48:22.675Z,107.73
2018-12-02T20:50:50.546Z,111.53
2018-12-02T20:53:18.283Z,119.90
2018-12-02T20:55:46.006Z,119.43
2018-12-02T20:58:13.710Z,113.10
2018-12-02T21:00:41.462Z,120.80
2018-12-02T21:03:14.770Z,115.40
2018-12-02T21:05:51.573Z,105.67
2018-12-02T21:08:19.258Z,105.10
2018-12-02T21:10:47.408Z,102.40
2018-12-02T21:13:15.322Z,105.93
2018-12-02T21:15:43.380Z,106.27
2018-12-02T21:18:11.448Z,111.23
2018-12-02T21:20:39.836Z,114.60
2018-12-02T21:23:08.082Z,125.67
2018-12-02T21:25:36.034Z,111.43
2018-12-02T21:28:04.385Z,106.30
2018-12-02T21:30:32.073Z,110.60
2018-12-02T21:32:59.800Z,119.30
2018-12-02T21:35:27.567Z,106.30
2018-12-02T21:37:55.676Z,114.60
2018-12-02T21:40:23.454Z,108.33
2018-12-02T21:42:51.303Z,116.33
2018-12-02T21:45:19.187Z,108.80
2018-12-02T21:47:49.088Z,116.00
2018-12-02T21:50:33.027Z,107.57
2018-12-02T21:53:01.221Z,122.13
2018-12-02T21:55:28.979Z,124.13
2018-12-02T21:57:56.777Z,126.33
2018-12-02T22:00:30.109Z,146.90
2018-12-02T22:02:57.890Z,136.13
2018-12-02T22:05:25.553Z,129.93
2018-12-02T22:07:53.501Z,145.27
2018-12-02T22:10:23.485Z,138.70
2018-12-02T22:12:51.263Z,135.77
2018-12-02T22:15:19.019Z,125.23
2018-12-02T22:17:46.767Z,120.03
2018-12-02T22:20:15.482Z,126.30
2018-12-02T22:22:43.065Z,119.90
2018-12-02T22:25:11.718Z,123.73
2018-12-02T22:27:39.373Z,116.50
2018-12-02T22:30:09.457Z,125.57
2018-12-02T22:32:37.439Z,109.80
2018-12-02T22:35:06.957Z,114.50
2018-12-02T22:37:34.715Z,117.90
2018-12-02T22:40:02.497Z,117.77
2018-12-02T22:42:30.170Z,121.93
2018-12-02T22:44:57.846Z,123.60
2018-12-02T22:47:26.107Z,120.40
2018-12-02T22:49:53.738Z,118.60
2018-12-02T22:52:21.705Z,122.13
2018-12-02T22:54:49.346Z,127.10
2018-12-02T22:57:16.996Z,115.80
2018-12-02T22:59:44.608Z,117.80
2018-12-02T23:02:21.757Z,120.27
2018-12-02T23:04:49.654Z,116.97
2018-12-02T23:07:17.571Z,118.20
2018-12-02T23:09:45.289Z,115.90
2018-12-02T23:12:13.042Z,117.87
2018-12-02T23:14:40.872Z,106.00
2018-12-02T23:17:21.565Z,114.13
2018-12-02T23:19:49.235Z,118.30
2018-12-02T23:22:17.020Z,110.57
2018-12-02T23:24:44.785Z,108.97
2018-12-02T23:27:12.418Z,113.90
2018-12-02T23:29:40.079Z,118.10
2018-12-02T23:32:07.967Z,112.07
2018-12-02T23:34:35.619Z,112.90
2018-12-02T23:37:03.385Z,110.83
2018-12-02T23:39:31.158Z,116.17
2018-12-02T23:41:58.911Z,121.40
2018-12-02T23:44:26.658Z,116.13
2018-12-02T23:46:54.443Z,116.40
2018-12-02T23:49:22.110Z,118.37
2018-12-02T23:51:49.762Z,122.50
2018-12-02T23:54:17.523Z,121.00
2018-12-02T23:56:45.196Z,118.03
2018-12-02T23:59:12.928Z,121.20
